Flight Track Log - Related Links

Times and Time Zones

All times are in EDT time to prevent confusion due to time zone crossing. See the SKW4682 flight status page for this flight to view local times or setup timezone preferences in your user account.

Time Position Orientation Groundspeed Altitude Reporting Facility
EDT Latitude Longitude Course Direction KTS MPH feet Rate Location/Type
Sat 10:47:44 PM 44.8667 -93.1500 336° Northwest 171 197 2,400  Level Minneapolis TRACON
Sat 10:48:02 PM 44.8633 -93.1339 106° East 178 205 2,900 1,899 Climbing Minneapolis Center
Sat 10:49:03 PM 44.8619 -93.0431 91° East 264 304 4,900 2,430 Climbing Minneapolis Center
Sat 10:50:00 PM 45.2698 -93.4277 339° North  Level FlightAware Approximate
Sat 10:50:03 PM 44.9272 -92.9731 37° Northeast 295 339 7,800  Level Minneapolis Center
Sat 10:51:00 PM 45.3700 -93.4833 339° North  Level FlightAware Approximate
Sat 10:51:04 PM 45.0075 -92.9825 355° North 294 338 10,700  Level Minneapolis Center
Sat 10:52:00 PM 45.4711 -93.5356 341° North  Level FlightAware Approximate
Sat 10:52:04 PM 45.0958 -93.0081 348° North 325 374 12,100  Level Minneapolis Center
Sat 10:53:00 PM 45.5705 -93.5940 336° Northwest  Level FlightAware Approximate
Sat 10:53:17 PM 45.1897 -93.0322 350° North 344 396 13,900  Level Minneapolis Center
Sat 10:54:17 PM 45.3081 -93.0467 355° North 361 415 16,000 1,398 Climbing Minneapolis Center
Sat 10:55:30 PM 45.4083 -93.0364 North 364 419 17,000 1,209 Climbing Minneapolis Center
Sat 10:56:31 PM 45.5308 -93.0222 North 367 422 18,700 1,636 Climbing Minneapolis Center
Sat 10:57:31 PM 45.6353 -93.0144 North 375 432 20,300 1,438 Climbing Minneapolis Center
Sat 10:58:32 PM 45.7411 -93.0008 North 380 437 21,600 1,128 Climbing Minneapolis Center
Sat 10:59:44 PM 45.8728 -92.9867 North 392 451 22,800 1,218 Climbing Minneapolis Center
Sat 11:00:45 PM 46.0064 -92.9756 North 399 459 24,300 1,240 Climbing Minneapolis Center
Sat 11:01:45 PM 46.0833 -93.0853 315° West 393 452 25,300 992 Climbing Minneapolis Center
Sat 11:02:46 PM 46.1561 -93.1989 313° West 388 447 26,300 885 Climbing Minneapolis Center
Sat 11:03:47 PM 46.2303 -93.3181 312° West 391 450 27,100 744 Climbing Minneapolis Center
Sat 11:04:47 PM 46.3058 -93.4397 312° West 398 458 27,800 744 Climbing Minneapolis Center
Sat 11:05:48 PM 46.3817 -93.5597 313° West 402 463 28,600 744 Climbing Minneapolis Center
Sat 11:06:48 PM 46.4569 -93.6836 311° West 407 468 29,300 694 Climbing Minneapolis Center
Sat 11:07:49 PM 46.5331 -93.8075 312° West 409 471 30,000 738 Climbing Minneapolis Center
Sat 11:08:50 PM 46.6089 -93.9303 312° West 408 470 30,800 843 Climbing Minneapolis Center
Sat 11:09:50 PM 46.6844 -94.0533 312° West 408 470 31,700 595 Climbing Minneapolis Center
Sat 11:10:51 PM 46.7600 -94.1794 311° West 411 473 32,000 149 Climbing Minneapolis Center
Sat 11:11:51 PM 46.8381 -94.3086 311° West 422 486 32,000  Level Minneapolis Center
Sat 11:12:52 PM 46.9178 -94.4397 312° West 430 495 32,000  Level Minneapolis Center
Sat 11:13:52 PM 46.9978 -94.5722 312° West 433 498 32,000  Level Minneapolis Center
Sat 11:14:53 PM 47.0772 -94.7061 311° West 434 499 32,000  Level Minneapolis Center
Sat 11:15:54 PM 47.1564 -94.8411 311° West 436 502 32,000  Level Minneapolis Center
Sat 11:16:54 PM 47.2403 -94.9681 314° West 436 502 32,000  Level Minneapolis Center
Sat 11:17:55 PM 47.3503 -95.0594 331° Northwest 452 520 32,000  Level Minneapolis Center
Sat 11:18:55 PM 47.4578 -95.1489 331° Northwest 445 512 32,000  Level Minneapolis Center
Sat 11:19:56 PM 47.5653 -95.2392 330° Northwest 444 511 32,000  Level Minneapolis Center
Sat 11:20:56 PM 47.6742 -95.3258 332° Northwest 444 511 32,000  Level Minneapolis Center
Sat 11:22:09 PM 47.7839 -95.4117 332° Northwest 445 512 32,000  Level Minneapolis Center
Sat 11:23:34 PM 47.9392 -95.5358 332° Northwest 441 507 32,000  Level Minneapolis Center
Sat 11:24:34 PM 48.0356 -95.6872 314° West 424 488 32,000  Level Minneapolis Center
Sat 11:25:35 PM 48.1031 -95.8292 305° West 422 486 32,000  Level Minneapolis Center
Sat 11:26:35 PM 48.1703 -95.9711 305° West 421 484 32,000  Level Minneapolis Center
Sat 11:27:36 PM 48.2369 -96.1153 305° West 422 486 32,000  Level Minneapolis Center
Sat 11:28:36 PM 48.3072 -96.2600 306° West 428 493 32,000  Level Minneapolis Center
Sat 11:29:37 PM 48.3733 -96.4050 305° West 425 489 32,000  Level Minneapolis Center
Sat 11:30:37 PM 48.4425 -96.5500 306° West 427 491 32,000  Level Minneapolis Center
Sat 11:31:50 PM 48.5214 -96.7231 305° West 422 486 32,000  Level Minneapolis Center
Sat 11:32:50 PM 48.6006 -96.8992 304° West 424 488 32,000  Level Minneapolis Center
Sat 11:33:51 PM 48.6664 -97.0444 304° West 422 486 32,000  Level Minneapolis Center
Sat 11:34:51 PM 48.7197 -97.1619 305° West 424 488 32,000  Level Minneapolis Center
Sat 11:35:52 PM 48.7981 -97.3372 304° West 423 487 32,000  Level Minneapolis Center
Sat 11:36:52 PM 48.8644 -97.4825 305° West 422 486 32,000  Level Minneapolis Center
Sat 11:37:52 PM 48.9286 -97.6344 303° West 427 491 32,000  Level Minneapolis Center
Sat 11:38:53 PM 48.9914 -97.7739 304° West 416 479 32,000  Level Minneapolis Center
Sat 11:39:59 PM 49.0500 -97.9333 299° West 410 472 32,000  Level Winnipeg Center
Sat 11:40:59 PM 49.1000 -98.0667 300° West 410 472 32,000  Level Winnipeg Center
Sat 11:41:59 PM 49.1667 -98.2167 304° West 410 472 32,000  Level Winnipeg Center
Sat 11:42:59 PM 49.2333 -98.3667 304° West 410 472 32,000  Level Winnipeg Center
Sat 11:43:59 PM 49.3000 -98.5000 308° West 400 460 32,000  Level Winnipeg Center
Sat 11:44:59 PM 49.3667 -98.6667 302° West 410 472 32,000  Level Winnipeg Center
Sat 11:45:59 PM 49.4167 -98.7833 303° West 410 472 32,000  Level Winnipeg Center
Sat 11:46:59 PM 49.5000 -98.9500 308° West 420 483 32,000  Level Winnipeg Center
Sat 11:47:59 PM 49.5500 -99.1000 297° West 420 483 32,000  Level Winnipeg Center
Sat 11:48:59 PM 49.6000 -99.2333 300° West 420 483 32,000  Level Winnipeg Center
Sat 11:49:59 PM 49.6667 -99.4000 302° West 410 472 32,000  Level Winnipeg Center
Sat 11:50:59 PM 49.7333 -99.5500 305° West 420 483 32,000  Level Winnipeg Center
Sat 11:51:59 PM 49.8000 -99.7167 302° West 420 483 32,000  Level Winnipeg Center
Sat 11:52:59 PM 49.8667 -99.8667 305° West 420 483 32,000  Level Winnipeg Center
Sat 11:53:59 PM 49.9000 -100.0333 287° West 410 472 32,000  Level Winnipeg Center
Sat 11:54:59 PM 49.9333 -100.1833 289° West 400 460 32,000  Level Winnipeg Center
Sat 11:55:59 PM 49.9667 -100.3500 287° West 400 460 32,000  Level Winnipeg Center
Sat 11:56:59 PM 49.9833 -100.5333 278° West 400 460 32,000  Level Winnipeg Center
Sat 11:57:59 PM 50.0333 -100.6833 297° West 400 460 32,000  Level Winnipeg Center
Sat 11:58:59 PM 50.0667 -100.8500 287° West 390 449 32,000  Level Winnipeg Center
Sat 11:59:59 PM 50.1000 -101.0167 287° West 390 449 32,000  Level Winnipeg Center
Sun 12:00:59 AM 50.1167 -101.1667 280° West 390 449 32,000  Level Winnipeg Center
Sun 12:01:59 AM 50.1500 -101.3500 286° West 390 449 32,000  Level Winnipeg Center
Sun 12:02:59 AM 50.1667 -101.5167 279° West 390 449 32,000  Level Winnipeg Center
Sun 12:03:59 AM 50.2000 -101.6667 289° West 390 449 32,000  Level Winnipeg Center
Sun 12:04:59 AM 50.2333 -101.8333 287° West 390 449 32,000  Level Winnipeg Center
Sun 12:05:59 AM 50.2500 -102.0000 279° West 390 449 32,000  Level Winnipeg Center
Sun 12:06:59 AM 50.2833 -102.1500 289° West 390 449 32,000  Level Winnipeg Center
Sun 12:07:59 AM 50.3000 -102.3333 278° West 400 460 32,000 -200 Level Winnipeg Center
Sun 12:08:59 AM 50.3333 -102.5000 287° West 400 460 31,600 -1,200 Descending Winnipeg Center
Sun 12:09:59 AM 50.3500 -102.6833 278° West 390 449 29,600 -2,250 Descending Winnipeg Center
Sun 12:10:59 AM 50.3500 -102.8500 270° West 400 460 27,100 -2,650 Descending Winnipeg Center
Sun 12:11:59 AM 50.3333 -103.0333 262° West 410 472 24,300 -3,000 Descending Winnipeg Center
Sun 12:12:59 AM 50.3333 -103.1833 270° West 400 460 21,100 -2,850 Descending Winnipeg Center
Sun 12:13:59 AM 50.3333 -103.3667 270° West 380 437 18,600 -2,550 Descending Winnipeg Center
Sun 12:14:59 AM 50.3333 -103.5167 270° West 350 403 16,000 -2,550 Descending Winnipeg Center
Sun 12:15:59 AM 50.3167 -103.6500 259° West 340 391 13,500 -2,500 Descending Winnipeg Center
Sun 12:16:59 AM 50.3167 -103.8167 270° West 320 368 11,000 -1,900 Descending Winnipeg Center
Sun 12:17:59 AM 50.3000 -103.9167 255° West 300 345 9,700 -1,450 Descending Winnipeg Center
Sun 12:18:59 AM 50.3000 -104.0500 270° West 280 322 8,100 -1,550 Descending Winnipeg Center
Sun 12:19:59 AM 50.2833 -104.1500 255° West 260 299 6,600 -1,500 Descending Winnipeg Center
Sun 12:20:59 AM 50.3000 -104.2500 285° West 250 288 5,100 -1,300 Descending Winnipeg Center
Sun 12:21:59 AM 50.3000 -104.3667 270° West 240 276 4,000 -550 Descending Winnipeg Center
Sun 12:22:59 AM 50.2833 -104.4333 249° West 200 230 4,000  Level Winnipeg Center
Sun 12:23:59 AM 50.3000 -104.5167 287° West 180 207 4,000 -100 Level Winnipeg Center
Sun 12:24:59 AM 50.3500 -104.5833 320° Northwest 180 207 3,800 -550 Descending Winnipeg Center
Sun 12:25:59 AM 50.3833 -104.6167 327° Northwest 170 196 2,900 -850 Descending Winnipeg Center
Sun 12:26:59 AM 50.4000 -104.6667 298° West 140 161 2,100 -800 Descending Winnipeg Center

Login

Don't have an account? Register now (free) for customized features, flight alerts, and more!